This is the latest recevied weather packets stored in our database for station/object VR2OT-10. If no packets are shown the sender has not sent any weather packets the latest 10 day(s).
| Time | Temp. | Humidity | Pressure | Rain* | Wind** | Luminosity | Snow |
|---|---|---|---|---|---|---|---|
| 1777773739 | 27.78° C | 78% | 1012.6 hPa | - | 1.34 m/s, 270° | - | - |
| 1777772838 | 27.78° C | 79% | 1012.3 hPa | - | 0.45 m/s, 270° | - | - |
| 1777771938 | 26.67° C | 80% | 1011.8 hPa | - | 0 m/s | - | - |
| 1777771038 | 26.11° C | 81% | 1011.8 hPa | - | 0 m/s | - | - |
| 1777770138 | 26.67° C | 79% | 1011.5 hPa | - | 0 m/s | - | - |
| 1777769238 | 26.11° C | 81% | 1011.5 hPa | - | 0 m/s | - | - |
| 1777768339 | 25.56° C | 83% | 1011.2 hPa | - | 0 m/s | - | - |
| 1777767438 | 26.11° C | 85% | 1011.1 hPa | - | 0 m/s | - | - |
| 1777766539 | 26.11° C | 86% | 1011 hPa | - | 1.34 m/s, 135° | - | - |
| 1777765638 | 25° C | 86% | 1011.2 hPa | - | - | - | - |
| 1777764738 | 25° C | 88% | 1011.1 hPa | - | 0.89 m/s, 135° | - | - |
| 1777763838 | 24.44° C | 88% | 1011.1 hPa | - | 1.34 m/s, 135° | - | - |
| 1777762939 | 23.89° C | 88% | 1011.1 hPa | - | 0.89 m/s, 135° | - | - |
| 1777762038 | 23.89° C | 89% | 1011.1 hPa | - | 0.89 m/s, 135° | - | - |
| 1777761138 | 23.89° C | 88% | 1010.8 hPa | - | 1.34 m/s, 135° | - | - |
| 1777759338 | 23.89° C | 88% | 1011 hPa | - | - | - | - |
| 1777758438 | 23.89° C | 88% | 1010.8 hPa | - | - | - | - |
| 1777757538 | 23.89° C | 89% | 1010.7 hPa | - | 0.45 m/s, 135° | - | - |
| 1777756637 | 23.89° C | 89% | 1010.6 hPa | - | 0.89 m/s, 135° | - | - |
| 1777755738 | 23.89° C | 89% | 1010.6 hPa | - | 0.45 m/s, 135° | - | - |
| 1777754838 | 23.33° C | 89% | 1010.3 hPa | - | 0.45 m/s, 135° | - | - |
| 1777753938 | 23.33° C | 90% | 1010.1 hPa | - | 0.89 m/s, 135° | - | - |
| 1777753038 | 23.89° C | 89% | 1010 hPa | - | 0.89 m/s, 135° | - | - |
| 1777752138 | 23.89° C | 88% | 1010 hPa | - | 0.89 m/s, 135° | - | - |
| 1777751237 | 23.89° C | 88% | 1009.8 hPa | - | 0.89 m/s, 135° | - | - |
* Rain since midnight (hover to see other rain measurements)
** Current wind speed in m/s (hover to see current wind gust speed)